Aviation Digital Data Service (ADDS)

Output produced by METARs form (1010 UTC 29 July 2016)
found at http://www.aviationweather.gov/adds/metars/
 
KSEG 290959Z AUTO 01003KT 3/4SM BR VV002 19/19 A2987 RMK AO2 T01940194
KSEG 290953Z AUTO 02003KT 1 1/2SM BR FEW007 19/19 A2986 RMK AO2 SLP108 T01940194
KSEG 290933Z AUTO 00000KT 1 1/4SM BR FEW006 19/19 A2986 RMK AO2 T01940194
KSEG 290922Z AUTO 00000KT 1 1/2SM BR CLR 19/19 A2985 RMK AO2 T01940194
KSEG 290853Z AUTO 00000KT 2 1/2SM BR FEW049 20/20 A2985 RMK AO2 SLP103 60002 T02000200 58017
KSEG 290843Z AUTO 00000KT 2 1/2SM BR FEW049 20/20 A2985 RMK AO2 T02000200
KSEG 290753Z AUTO 34004KT 3SM BR CLR 21/21 A2987 RMK AO2 RAE20 SLP109 P0000 T02060206
KSEG 290653Z AUTO 00000KT 6SM -RA BR SCT023 SCT100 BKN120 21/21 A2989 RMK AO2 SLP116 P0002 T02110211
KSEG 290605Z AUTO 00000KT 6SM -RA BR BKN021 BKN041 BKN110 22/22 A2990 RMK AO2 P0001 T02170217
KSEG 290553Z AUTO 00000KT 4SM -RA BR FEW021 SCT041 BKN110 22/22 A2990 RMK AO2 SLP120 P0001 60005 T02170217 10233 20217 56003
KSEG 290453Z AUTO 00000KT 5SM -RA BR FEW018 BKN090 22/22 A2990 RMK AO2 RAE17B47 SLP122 P0001 T02170217 403110178
KSEG 290405Z AUTO 00000KT 7SM -RA OVC015 22/22 A2990 RMK AO2 P0001 T02220222
KSEG 290353Z AUTO 00000KT 7SM -RA OVC014 23/23 A2990 RMK AO2 SLP121 P0000 T02280228
KSEG 290333Z AUTO 00000KT 5SM -RA BR BKN013 OVC020 23/23 A2990 RMK AO2 P0000 T02280228
KSEG 290320Z AUTO 00000KT 5SM -RA BR SCT013 BKN019 OVC075 23/23 A2990 RMK AO2 P0000 T02280228
KSEG 290253Z AUTO 00000KT 5SM -RA BR OVC070 23/23 A2991 RMK AO2 SLP123 P0001 60003 T02280228 53005
KSEG 290153Z AUTO 00000KT 7SM -RA BKN070 BKN110 23/23 A2990 RMK AO2 SLP121 P0001 T02330233
KSEG 290053Z AUTO 21003KT 10SM -RA SCT070 SCT110 23/23 A2989 RMK AO2 RAE34B53 SLP117 P0001 T02330233
KSEG 282353Z AUTO 22003KT 6SM -RA BR BKN120 24/23 A2989 RMK AO2 SLP120 P0001 60001 T02390233 10311 20239 53012
KSEG 282253Z AUTO 17006KT 10SM -RA BKN110 26/23 A2989 RMK AO2 RAE07B43 SLP118 P0000 T02560228
KSEG 282153Z AUTO 19003KT 10SM -RA FEW075 SCT090 BKN110 27/23 A2986 RMK AO2 RAB38 SLP106 P0000 T02720233
KSEG 282053Z AUTO 00000KT 10SM FEW065 SCT095 BKN120 29/23 A2986 RMK AO2 LTG DSNT SE RAB1958E17B39E53 SLP106 P0000 60000 T02890233 56005
KSEG 281953Z AUTO 00000KT 10SM SCT050 SCT070 BKN110 30/22 A2986 RMK AO2 SLP107 T03000217
KSEG 281853Z AUTO 00000KT 10SM CLR 31/22 A2987 RMK AO2 LTG DSNT SE SLP111 T03060222
KSEG 281753Z AUTO VRB03KT 10SM CLR 31/22 A2987 RMK AO2 LTG DSNT E SLP111 T03110222 10311 20211 58021
KSEG 281653Z AUTO 34003KT 10SM FEW080 29/22 A2991 RMK AO2 SLP124 T02890217
KSEG 281553Z AUTO 33003KT 10SM FEW085 28/21 A2992 RMK AO2 SLP127 T02780211
KSEG 281453Z AUTO 00000KT 10SM FEW085 SCT110 27/20 A2993 RMK AO2 SLP133 T02670200 58004
KSEG 281353Z AUTO 00000KT 10SM SCT095 BKN110 24/21 A2994 RMK AO2 SLP134 T02440206
KSEG 281253Z AUTO 00000KT 10SM SCT090 23/21 A2995 RMK AO2 SLP138 T02330206
KSEG 281153Z AUTO 00000KT 9SM SCT100 21/20 A2995 RMK AO2 SLP137 T02060200 10206 20178 53006
KSEG 281053Z AUTO 32003KT 7SM CLR 19/19 A2994 RMK AO2 SLP135 T01890189
KSEG 280953Z AUTO 00000KT 6SM BR CLR 18/18 A2993 RMK AO2 SLP132 T01780178
KSEG 280853Z AUTO 00000KT 6SM BR CLR 18/18 A2993 RMK AO2 SLP131 T01780178 58002
KSEG 280753Z AUTO 00000KT 7SM CLR 18/18 A2993 RMK AO2 SLP132 T01780178
KSEG 280653Z AUTO 00000KT 7SM CLR 18/18 A2994 RMK AO2 SLP134 T01780178
KSEG 280553Z AUTO 00000KT 9SM CLR 18/18 A2993 RMK AO2 SLP133 T01830183 10244 20183 50002
KSEG 280453Z AUTO 00000KT 10SM CLR 19/19 A2994 RMK AO2 SLP134 T01890189 403170172
KSEG 280353Z AUTO 00000KT 10SM CLR 19/19 A2993 RMK AO2 SLP131 T01940194
KSEG 280253Z AUTO 00000KT 10SM CLR 20/20 A2993 RMK AO2 SLP131 T02000200 51004
KSEG 280153Z AUTO 02003KT 10SM CLR 21/21 A2992 RMK AO2 SLP129 T02110211
KSEG 280053Z AUTO 00000KT 10SM CLR 22/22 A2992 RMK AO2 SLP129 T02220222
KSEG 272353Z AUTO 00000KT 10SM CLR 24/23 A2992 RMK AO2 SLP127 T02440233 10317 20244 55002
KSEG 272253Z AUTO 00000KT 10SM CLR 28/24 A2991 RMK AO2 SLP126 T02780244